Higginsport, Ohio
Current Conditions -  °F | °C
As of 9:15 AM on Tuesday 21 Oct 2014 (Local Time) from KFGX Reporting Station
Overcast Overcast  
Wind Chill: 46°   Ceiling: 6000
Heat Index: 49°   Visibility: 10mi
Dew Point: 47°   Wind: 8mph
Humidity: 92%   Direction: 310°NW
Pressure: 30"   Gusts: NA
Location:  38.79°N, 83.97°W
Report Text: KFGX 211315Z AUTO 31007KT 10SM SCT008 OVC060 10/09 A3000 RMK AO2 T00970085
Loading
Personal Weather Stations






























Interactive Weather Map
Tropical Storm Tracking
New forecast layout! Learn more

10-Day Weather Forecast

Advertisements
Track Severe Weather on mobile